sensor_id;sensor_type;location;lat;lon;timestamp;noise_LAeq;noise_LA_min;noise_LA_max;noise_LA01;noise_LA95
69608;Laerm;57251;52.248;4.812;2024-03-02T00:00:07;40.67;34.11;56.26;;
69608;Laerm;57251;52.248;4.812;2024-03-02T00:00:22;39.44;33.72;50.27;;
69608;Laerm;57251;52.248;4.812;2024-03-02T00:00:32;44.86;34.98;58.67;;
69608;Laerm;57251;52.248;4.812;2024-03-02T00:00:43;42.16;35.28;54.42;;
69608;Laerm;57251;52.248;4.812;2024-03-02T00:00:53;48.00;34.73;59.55;;
69608;Laerm;57251;52.248;4.812;2024-03-02T00:01:04;49.68;38.37;63.52;;
69608;Laerm;57251;52.248;4.812;2024-03-02T00:01:14;49.52;39.65;60.16;;
69608;Laerm;57251;52.248;4.812;2024-03-02T00:01:25;41.08;36.97;44.30;;
69608;Laerm;57251;52.248;4.812;2024-03-02T00:01:36;39.57;35.84;46.12;;
69608;Laerm;57251;52.248;4.812;2024-03-02T00:01:46;44.55;36.89;58.99;;
69608;Laerm;57251;52.248;4.812;2024-03-02T00:01:56;62.32;39.81;79.75;;
69608;Laerm;57251;52.248;4.812;2024-03-02T00:02:07;50.49;39.42;60.73;;
69608;Laerm;57251;52.248;4.812;2024-03-02T00:02:17;46.94;35.38;57.83;;
69608;Laerm;57251;52.248;4.812;2024-03-02T00:02:30;41.50;35.32;52.23;;
69608;Laerm;57251;52.248;4.812;2024-03-02T00:02:43;43.25;35.36;55.24;;
69608;Laerm;57251;52.248;4.812;2024-03-02T00:02:54;45.11;34.32;58.08;;
69608;Laerm;57251;52.248;4.812;2024-03-02T00:03:05;47.28;36.03;58.71;;
69608;Laerm;57251;52.248;4.812;2024-03-02T00:03:17;47.67;35.58;63.91;;
69608;Laerm;57251;52.248;4.812;2024-03-02T00:03:31;60.46;40.93;72.27;;
69608;Laerm;57251;52.248;4.812;2024-03-02T00:03:42;57.69;39.18;72.37;;
69608;Laerm;57251;52.248;4.812;2024-03-02T00:03:53;54.41;37.68;68.56;;
69608;Laerm;57251;52.248;4.812;2024-03-02T00:04:09;44.20;37.30;55.41;;
69608;Laerm;57251;52.248;4.812;2024-03-02T00:04:26;58.00;36.58;73.14;;
69608;Laerm;57251;52.248;4.812;2024-03-02T00:04:36;69.20;38.43;80.94;;
69608;Laerm;57251;52.248;4.812;2024-03-02T00:04:50;63.80;38.59;74.84;;
69608;Laerm;57251;52.248;4.812;2024-03-02T00:05:00;49.21;35.11;60.63;;
69608;Laerm;57251;52.248;4.812;2024-03-02T00:05:12;37.32;35.05;42.49;;
69608;Laerm;57251;52.248;4.812;2024-03-02T00:05:22;55.49;35.90;71.19;;
69608;Laerm;57251;52.248;4.812;2024-03-02T00:05:35;73.00;43.47;87.75;;
69608;Laerm;57251;52.248;4.812;2024-03-02T00:05:49;49.48;33.99;60.98;;
69608;Laerm;57251;52.248;4.812;2024-03-02T00:06:01;50.51;33.83;63.48;;
69608;Laerm;57251;52.248;4.812;2024-03-02T00:06:15;54.13;33.21;68.38;;
69608;Laerm;57251;52.248;4.812;2024-03-02T00:06:29;48.00;33.19;64.08;;
69608;Laerm;57251;52.248;4.812;2024-03-02T00:06:39;50.08;34.37;66.80;;
69608;Laerm;57251;52.248;4.812;2024-03-02T00:06:52;62.23;35.21;78.32;;
69608;Laerm;57251;52.248;4.812;2024-03-02T00:07:05;52.65;36.82;65.44;;
69608;Laerm;57251;52.248;4.812;2024-03-02T00:07:16;47.58;35.93;59.71;;
69608;Laerm;57251;52.248;4.812;2024-03-02T00:07:27;53.98;36.52;66.72;;
69608;Laerm;57251;52.248;4.812;2024-03-02T00:07:41;56.22;38.87;69.56;;
69608;Laerm;57251;52.248;4.812;2024-03-02T00:07:53;62.73;39.12;78.34;;
69608;Laerm;57251;52.248;4.812;2024-03-02T00:08:04;54.97;36.83;68.02;;
69608;Laerm;57251;52.248;4.812;2024-03-02T00:08:15;44.79;35.04;60.31;;
69608;Laerm;57251;52.248;4.812;2024-03-02T00:08:35;43.71;34.52;55.78;;
69608;Laerm;57251;52.248;4.812;2024-03-02T00:08:46;51.92;34.95;64.09;;
69608;Laerm;57251;52.248;4.812;2024-03-02T00:08:57;59.42;38.43;72.63;;
69608;Laerm;57251;52.248;4.812;2024-03-02T00:09:08;59.38;36.13;69.47;;
69608;Laerm;57251;52.248;4.812;2024-03-02T00:09:19;53.38;36.46;67.18;;
69608;Laerm;57251;52.248;4.812;2024-03-02T00:09:30;55.95;34.95;69.23;;
69608;Laerm;57251;52.248;4.812;2024-03-02T00:09:40;55.29;35.02;68.75;;
69608;Laerm;57251;52.248;4.812;2024-03-02T00:09:53;59.38;43.87;72.74;;
69608;Laerm;57251;52.248;4.812;2024-03-02T00:10:05;46.40;35.34;59.84;;
69608;Laerm;57251;52.248;4.812;2024-03-02T00:10:19;60.50;37.21;72.91;;
69608;Laerm;57251;52.248;4.812;2024-03-02T00:10:35;63.11;36.59;78.63;;
69608;Laerm;57251;52.248;4.812;2024-03-02T00:10:49;59.30;35.61;72.61;;
69608;Laerm;57251;52.248;4.812;2024-03-02T00:11:00;53.97;35.46;70.31;;
69608;Laerm;57251;52.248;4.812;2024-03-02T00:11:14;54.13;35.76;68.94;;
69608;Laerm;57251;52.248;4.812;2024-03-02T00:11:26;46.99;34.71;59.23;;
69608;Laerm;57251;52.248;4.812;2024-03-02T00:11:37;55.85;35.84;69.88;;
69608;Laerm;57251;52.248;4.812;2024-03-02T00:11:49;58.06;34.47;69.98;;
69608;Laerm;57251;52.248;4.812;2024-03-02T00:11:59;44.84;34.61;56.49;;
69608;Laerm;57251;52.248;4.812;2024-03-02T00:12:11;45.60;35.51;54.67;;
69608;Laerm;57251;52.248;4.812;2024-03-02T00:12:25;53.45;40.14;66.25;;
69608;Laerm;57251;52.248;4.812;2024-03-02T00:12:36;54.06;37.69;67.04;;
69608;Laerm;57251;52.248;4.812;2024-03-02T00:12:47;41.37;37.69;51.29;;
69608;Laerm;57251;52.248;4.812;2024-03-02T00:12:58;47.06;37.81;59.29;;
69608;Laerm;57251;52.248;4.812;2024-03-02T00:13:09;45.80;36.62;57.01;;
69608;Laerm;57251;52.248;4.812;2024-03-02T00:13:20;39.92;37.13;45.88;;
69608;Laerm;57251;52.248;4.812;2024-03-02T00:13:32;60.40;35.95;73.51;;
69608;Laerm;57251;52.248;4.812;2024-03-02T00:13:44;70.19;42.00;87.63;;
69608;Laerm;57251;52.248;4.812;2024-03-02T00:13:55;69.11;40.70;81.84;;
69608;Laerm;57251;52.248;4.812;2024-03-02T00:14:05;65.62;47.27;76.97;;
69608;Laerm;57251;52.248;4.812;2024-03-02T00:14:16;63.80;36.59;75.59;;
69608;Laerm;57251;52.248;4.812;2024-03-02T00:14:30;53.50;35.87;67.24;;
69608;Laerm;57251;52.248;4.812;2024-03-02T00:14:40;46.19;35.39;55.90;;
69608;Laerm;57251;52.248;4.812;2024-03-02T00:14:51;59.21;38.14;71.01;;
69608;Laerm;57251;52.248;4.812;2024-03-02T00:15:03;60.30;37.68;74.52;;
69608;Laerm;57251;52.248;4.812;2024-03-02T00:15:34;53.36;36.47;73.38;;
69608;Laerm;57251;52.248;4.812;2024-03-02T00:16:01;41.31;34.54;53.21;;
69608;Laerm;57251;52.248;4.812;2024-03-02T00:16:15;48.59;35.15;64.36;;
69608;Laerm;57251;52.248;4.812;2024-03-02T00:16:30;45.72;35.87;68.51;;
69608;Laerm;57251;52.248;4.812;2024-03-02T00:16:41;43.16;36.38;53.10;;
69608;Laerm;57251;52.248;4.812;2024-03-02T00:16:52;45.57;36.05;60.81;;
69608;Laerm;57251;52.248;4.812;2024-03-02T00:17:09;61.93;36.59;79.29;;
69608;Laerm;57251;52.248;4.812;2024-03-02T00:17:29;62.64;39.58;78.03;;
69608;Laerm;57251;52.248;4.812;2024-03-02T00:17:39;44.71;37.28;61.85;;
69608;Laerm;57251;52.248;4.812;2024-03-02T00:17:53;52.94;37.79;67.99;;
69608;Laerm;57251;52.248;4.812;2024-03-02T00:18:04;60.56;39.50;73.81;;
69608;Laerm;57251;52.248;4.812;2024-03-02T00:18:16;58.35;39.93;72.74;;
69608;Laerm;57251;52.248;4.812;2024-03-02T00:18:35;72.27;41.18;82.95;;
69608;Laerm;57251;52.248;4.812;2024-03-02T00:18:48;49.13;36.87;65.15;;
69608;Laerm;57251;52.248;4.812;2024-03-02T00:19:02;39.77;36.55;46.37;;
69608;Laerm;57251;52.248;4.812;2024-03-02T00:19:15;45.70;38.12;57.62;;
69608;Laerm;57251;52.248;4.812;2024-03-02T00:19:26;44.15;37.98;53.46;;
69608;Laerm;57251;52.248;4.812;2024-03-02T00:19:38;57.50;36.73;76.56;;
69608;Laerm;57251;52.248;4.812;2024-03-02T00:19:49;49.60;37.39;64.85;;
69608;Laerm;57251;52.248;4.812;2024-03-02T00:20:00;56.23;37.63;66.91;;
69608;Laerm;57251;52.248;4.812;2024-03-02T00:20:12;54.85;35.90;69.62;;
69608;Laerm;57251;52.248;4.812;2024-03-02T00:20:28;56.73;37.38;72.44;;
69608;Laerm;57251;52.248;4.812;2024-03-02T00:20:40;64.31;44.02;77.99;;
69608;Laerm;57251;52.248;4.812;2024-03-02T00:20:54;60.69;37.82;72.18;;
69608;Laerm;57251;52.248;4.812;2024-03-02T00:21:06;44.26;36.73;58.36;;
69608;Laerm;57251;52.248;4.812;2024-03-02T00:21:19;45.60;36.45;59.08;;
69608;Laerm;57251;52.248;4.812;2024-03-02T00:21:32;56.21;39.36;68.76;;
69608;Laerm;57251;52.248;4.812;2024-03-02T00:21:43;44.20;37.46;52.92;;
69608;Laerm;57251;52.248;4.812;2024-03-02T00:21:53;47.76;37.81;55.56;;
69608;Laerm;57251;52.248;4.812;2024-03-02T00:22:04;46.13;35.31;60.32;;
69608;Laerm;57251;52.248;4.812;2024-03-02T00:22:15;37.54;35.25;46.01;;
69608;Laerm;57251;52.248;4.812;2024-03-02T00:22:25;37.94;35.19;47.58;;
69608;Laerm;57251;52.248;4.812;2024-03-02T00:22:36;37.43;34.51;46.63;;
69608;Laerm;57251;52.248;4.812;2024-03-02T00:22:47;46.67;35.83;57.42;;
69608;Laerm;57251;52.248;4.812;2024-03-02T00:23:04;49.73;37.57;60.41;;
69608;Laerm;57251;52.248;4.812;2024-03-02T00:23:15;47.40;36.62;64.20;;
69608;Laerm;57251;52.248;4.812;2024-03-02T00:23:27;54.33;36.74;71.30;;
69608;Laerm;57251;52.248;4.812;2024-03-02T00:23:38;43.84;36.20;56.65;;
69608;Laerm;57251;52.248;4.812;2024-03-02T00:23:48;40.05;35.64;52.17;;
69608;Laerm;57251;52.248;4.812;2024-03-02T00:24:06;41.16;35.92;54.01;;
69608;Laerm;57251;52.248;4.812;2024-03-02T00:24:32;56.77;35.96;73.86;;
69608;Laerm;57251;52.248;4.812;2024-03-02T00:24:43;53.89;35.77;66.78;;
69608;Laerm;57251;52.248;4.812;2024-03-02T00:24:54;48.29;36.28;61.97;;
69608;Laerm;57251;52.248;4.812;2024-03-02T00:25:04;45.43;36.97;61.56;;
69608;Laerm;57251;52.248;4.812;2024-03-02T00:25:15;73.12;40.21;85.31;;
69608;Laerm;57251;52.248;4.812;2024-03-02T00:25:26;68.83;42.88;81.96;;
69608;Laerm;57251;52.248;4.812;2024-03-02T00:25:54;60.74;39.12;75.56;;
69608;Laerm;57251;52.248;4.812;2024-03-02T00:26:05;57.61;43.12;69.90;;
69608;Laerm;57251;52.248;4.812;2024-03-02T00:26:15;62.61;42.08;77.57;;
69608;Laerm;57251;52.248;4.812;2024-03-02T00:26:26;71.33;47.85;83.36;;
69608;Laerm;57251;52.248;4.812;2024-03-02T00:26:36;57.57;41.09;68.96;;
69608;Laerm;57251;52.248;4.812;2024-03-02T00:26:47;61.56;39.94;78.97;;
69608;Laerm;57251;52.248;4.812;2024-03-02T00:27:01;56.20;38.63;69.50;;
69608;Laerm;57251;52.248;4.812;2024-03-02T00:27:14;45.06;39.29;55.92;;
69608;Laerm;57251;52.248;4.812;2024-03-02T00:27:25;46.02;38.99;60.33;;
69608;Laerm;57251;52.248;4.812;2024-03-02T00:27:35;59.79;41.03;71.34;;
69608;Laerm;57251;52.248;4.812;2024-03-02T00:27:47;54.26;37.79;66.10;;
69608;Laerm;57251;52.248;4.812;2024-03-02T00:27:58;44.06;36.70;53.69;;
69608;Laerm;57251;52.248;4.812;2024-03-02T00:28:21;59.00;38.77;72.87;;
69608;Laerm;57251;52.248;4.812;2024-03-02T00:28:35;47.00;37.47;60.52;;
69608;Laerm;57251;52.248;4.812;2024-03-02T00:28:46;42.54;36.88;53.76;;
69608;Laerm;57251;52.248;4.812;2024-03-02T00:28:57;43.17;34.23;54.00;;
69608;Laerm;57251;52.248;4.812;2024-03-02T00:29:07;45.40;34.41;58.86;;
69608;Laerm;57251;52.248;4.812;2024-03-02T00:29:23;47.69;35.41;59.44;;
69608;Laerm;57251;52.248;4.812;2024-03-02T00:29:39;38.68;35.84;49.48;;
69608;Laerm;57251;52.248;4.812;2024-03-02T00:29:50;41.63;35.93;55.12;;
69608;Laerm;57251;52.248;4.812;2024-03-02T00:30:01;50.65;35.05;66.87;;
69608;Laerm;57251;52.248;4.812;2024-03-02T00:30:31;62.89;35.69;77.70;;
69608;Laerm;57251;52.248;4.812;2024-03-02T00:30:56;55.01;35.78;68.91;;
69608;Laerm;57251;52.248;4.812;2024-03-02T00:31:08;39.77;35.32;49.69;;
69608;Laerm;57251;52.248;4.812;2024-03-02T00:31:21;44.09;37.16;56.37;;
69608;Laerm;57251;52.248;4.812;2024-03-02T00:31:31;48.54;39.09;59.97;;
69608;Laerm;57251;52.248;4.812;2024-03-02T00:31:42;46.80;35.80;61.47;;
69608;Laerm;57251;52.248;4.812;2024-03-02T00:31:52;63.17;38.49;75.10;;
69608;Laerm;57251;52.248;4.812;2024-03-02T00:32:10;45.69;35.62;56.03;;
69608;Laerm;57251;52.248;4.812;2024-03-02T00:32:22;43.63;35.86;60.27;;
69608;Laerm;57251;52.248;4.812;2024-03-02T00:32:33;57.49;41.27;67.09;;
69608;Laerm;57251;52.248;4.812;2024-03-02T00:32:44;45.70;38.18;58.53;;
69608;Laerm;57251;52.248;4.812;2024-03-02T00:32:54;52.22;36.89;66.02;;
69608;Laerm;57251;52.248;4.812;2024-03-02T00:33:07;54.12;38.43;63.58;;
69608;Laerm;57251;52.248;4.812;2024-03-02T00:33:20;43.27;38.55;53.28;;
69608;Laerm;57251;52.248;4.812;2024-03-02T00:33:32;49.34;37.99;59.16;;
69608;Laerm;57251;52.248;4.812;2024-03-02T00:33:47;42.06;37.74;51.89;;
69608;Laerm;57251;52.248;4.812;2024-03-02T00:34:00;42.53;37.15;54.19;;
69608;Laerm;57251;52.248;4.812;2024-03-02T00:34:17;48.11;37.27;64.35;;
69608;Laerm;57251;52.248;4.812;2024-03-02T00:34:31;50.46;40.02;60.87;;
69608;Laerm;57251;52.248;4.812;2024-03-02T00:34:42;50.31;38.47;64.05;;
69608;Laerm;57251;52.248;4.812;2024-03-02T00:34:53;43.14;37.05;54.49;;
69608;Laerm;57251;52.248;4.812;2024-03-02T00:35:04;54.31;38.31;68.06;;
69608;Laerm;57251;52.248;4.812;2024-03-02T00:35:15;70.53;41.10;83.68;;
69608;Laerm;57251;52.248;4.812;2024-03-02T00:35:25;50.08;38.73;61.83;;
69608;Laerm;57251;52.248;4.812;2024-03-02T00:35:36;48.94;40.27;61.51;;
69608;Laerm;57251;52.248;4.812;2024-03-02T00:35:47;46.19;40.83;52.64;;
69608;Laerm;57251;52.248;4.812;2024-03-02T00:35:57;47.08;39.36;56.27;;
69608;Laerm;57251;52.248;4.812;2024-03-02T00:36:09;47.66;40.93;52.01;;
69608;Laerm;57251;52.248;4.812;2024-03-02T00:36:26;55.87;40.36;65.47;;
69608;Laerm;57251;52.248;4.812;2024-03-02T00:36:37;46.44;37.36;57.99;;
69608;Laerm;57251;52.248;4.812;2024-03-02T00:36:47;58.28;38.82;71.95;;
69608;Laerm;57251;52.248;4.812;2024-03-02T00:36:58;67.71;41.73;84.34;;
69608;Laerm;57251;52.248;4.812;2024-03-02T00:37:10;64.10;40.93;79.24;;
69608;Laerm;57251;52.248;4.812;2024-03-02T00:37:21;64.66;41.19;79.30;;
69608;Laerm;57251;52.248;4.812;2024-03-02T00:37:32;53.00;41.04;65.45;;
69608;Laerm;57251;52.248;4.812;2024-03-02T00:37:43;51.63;37.79;63.41;;
69608;Laerm;57251;52.248;4.812;2024-03-02T00:37:54;56.49;35.96;69.15;;
69608;Laerm;57251;52.248;4.812;2024-03-02T00:38:05;63.05;37.24;77.86;;
69608;Laerm;57251;52.248;4.812;2024-03-02T00:38:18;49.95;37.83;60.91;;
69608;Laerm;57251;52.248;4.812;2024-03-02T00:38:40;57.61;39.63;71.17;;
69608;Laerm;57251;52.248;4.812;2024-03-02T00:38:53;55.58;37.67;70.78;;
69608;Laerm;57251;52.248;4.812;2024-03-02T00:39:04;53.92;36.94;67.01;;
69608;Laerm;57251;52.248;4.812;2024-03-02T00:39:21;57.84;36.87;72.89;;
69608;Laerm;57251;52.248;4.812;2024-03-02T00:39:31;52.24;38.44;67.08;;
69608;Laerm;57251;52.248;4.812;2024-03-02T00:39:42;54.42;40.35;68.12;;
69608;Laerm;57251;52.248;4.812;2024-03-02T00:39:53;52.51;40.46;62.16;;
69608;Laerm;57251;52.248;4.812;2024-03-02T00:40:03;63.13;39.83;74.80;;
69608;Laerm;57251;52.248;4.812;2024-03-02T00:40:14;61.57;41.60;76.32;;
69608;Laerm;57251;52.248;4.812;2024-03-02T00:40:28;56.93;41.88;69.23;;
69608;Laerm;57251;52.248;4.812;2024-03-02T00:40:39;47.64;41.63;61.24;;
69608;Laerm;57251;52.248;4.812;2024-03-02T00:40:50;53.70;41.21;63.17;;
69608;Laerm;57251;52.248;4.812;2024-03-02T00:41:06;48.65;39.88;59.30;;
69608;Laerm;57251;52.248;4.812;2024-03-02T00:41:33;51.23;38.13;65.37;;
69608;Laerm;57251;52.248;4.812;2024-03-02T00:41:44;43.69;38.91;52.65;;
69608;Laerm;57251;52.248;4.812;2024-03-02T00:41:54;64.82;44.59;80.96;;
69608;Laerm;57251;52.248;4.812;2024-03-02T00:42:05;62.99;43.52;74.56;;
69608;Laerm;57251;52.248;4.812;2024-03-02T00:42:15;58.07;42.19;69.74;;
69608;Laerm;57251;52.248;4.812;2024-03-02T00:42:29;53.87;42.51;68.37;;
69608;Laerm;57251;52.248;4.812;2024-03-02T00:42:41;51.31;41.79;64.03;;
69608;Laerm;57251;52.248;4.812;2024-03-02T00:42:51;64.27;44.48;76.29;;
69608;Laerm;57251;52.248;4.812;2024-03-02T00:43:02;48.56;41.37;60.91;;
69608;Laerm;57251;52.248;4.812;2024-03-02T00:43:25;45.56;40.97;52.85;;
69608;Laerm;57251;52.248;4.812;2024-03-02T00:43:58;43.46;39.79;53.93;;
69608;Laerm;57251;52.248;4.812;2024-03-02T00:44:12;50.41;38.39;64.42;;
69608;Laerm;57251;52.248;4.812;2024-03-02T00:44:23;59.08;41.12;71.56;;
69608;Laerm;57251;52.248;4.812;2024-03-02T00:44:40;66.55;43.04;82.94;;
69608;Laerm;57251;52.248;4.812;2024-03-02T00:44:51;49.08;40.88;59.87;;
69608;Laerm;57251;52.248;4.812;2024-03-02T00:45:05;45.71;40.96;52.69;;
69608;Laerm;57251;52.248;4.812;2024-03-02T00:45:17;53.67;39.93;66.60;;
69608;Laerm;57251;52.248;4.812;2024-03-02T00:45:34;58.19;40.74;68.39;;
69608;Laerm;57251;52.248;4.812;2024-03-02T00:45:44;48.19;39.68;59.40;;
69608;Laerm;57251;52.248;4.812;2024-03-02T00:45:55;59.73;44.51;68.95;;
69608;Laerm;57251;52.248;4.812;2024-03-02T00:46:05;51.67;39.44;64.83;;
69608;Laerm;57251;52.248;4.812;2024-03-02T00:46:17;55.45;40.38;64.62;;
69608;Laerm;57251;52.248;4.812;2024-03-02T00:46:34;58.17;39.85;68.13;;
69608;Laerm;57251;52.248;4.812;2024-03-02T00:46:45;54.97;36.83;68.49;;
69608;Laerm;57251;52.248;4.812;2024-03-02T00:47:04;56.66;35.53;69.53;;
69608;Laerm;57251;52.248;4.812;2024-03-02T00:47:14;62.60;36.69;78.98;;
69608;Laerm;57251;52.248;4.812;2024-03-02T00:47:25;44.24;37.22;62.12;;
69608;Laerm;57251;52.248;4.812;2024-03-02T00:47:38;40.38;36.43;49.83;;
69608;Laerm;57251;52.248;4.812;2024-03-02T00:47:49;39.19;35.42;47.71;;
69608;Laerm;57251;52.248;4.812;2024-03-02T00:48:00;39.05;35.69;45.48;;
69608;Laerm;57251;52.248;4.812;2024-03-02T00:48:10;38.62;36.21;44.82;;
69608;Laerm;57251;52.248;4.812;2024-03-02T00:48:20;42.52;36.85;51.92;;
69608;Laerm;57251;52.248;4.812;2024-03-02T00:48:31;48.31;38.40;61.35;;
69608;Laerm;57251;52.248;4.812;2024-03-02T00:48:48;53.64;44.94;65.20;;
69608;Laerm;57251;52.248;4.812;2024-03-02T00:49:05;66.65;41.50;83.57;;
69608;Laerm;57251;52.248;4.812;2024-03-02T00:49:22;66.95;38.37;81.16;;
69608;Laerm;57251;52.248;4.812;2024-03-02T00:49:35;56.17;37.13;69.68;;
69608;Laerm;57251;52.248;4.812;2024-03-02T00:49:46;57.73;36.63;73.84;;
69608;Laerm;57251;52.248;4.812;2024-03-02T00:49:57;59.51;37.33;70.66;;
69608;Laerm;57251;52.248;4.812;2024-03-02T00:50:08;54.73;37.53;66.29;;
69608;Laerm;57251;52.248;4.812;2024-03-02T00:50:19;62.64;37.50;74.74;;
69608;Laerm;57251;52.248;4.812;2024-03-02T00:50:29;40.41;36.87;47.70;;
69608;Laerm;57251;52.248;4.812;2024-03-02T00:50:39;64.33;38.70;80.34;;
69608;Laerm;57251;52.248;4.812;2024-03-02T00:50:52;47.39;37.53;59.01;;
69608;Laerm;57251;52.248;4.812;2024-03-02T00:51:03;49.70;37.28;60.75;;
69608;Laerm;57251;52.248;4.812;2024-03-02T00:51:14;49.75;38.01;59.75;;
69608;Laerm;57251;52.248;4.812;2024-03-02T00:51:26;53.44;37.37;64.30;;
69608;Laerm;57251;52.248;4.812;2024-03-02T00:51:36;57.78;36.04;75.65;;
69608;Laerm;57251;52.248;4.812;2024-03-02T00:51:48;57.42;36.17;72.25;;
69608;Laerm;57251;52.248;4.812;2024-03-02T00:52:01;54.73;36.29;72.21;;
69608;Laerm;57251;52.248;4.812;2024-03-02T00:52:13;59.38;39.55;68.92;;
69608;Laerm;57251;52.248;4.812;2024-03-02T00:52:24;62.11;39.28;74.79;;
69608;Laerm;57251;52.248;4.812;2024-03-02T00:52:34;55.81;37.77;69.43;;
69608;Laerm;57251;52.248;4.812;2024-03-02T00:52:45;59.33;38.94;73.15;;
69608;Laerm;57251;52.248;4.812;2024-03-02T00:52:59;57.00;36.36;69.61;;
69608;Laerm;57251;52.248;4.812;2024-03-02T00:53:10;62.01;40.46;76.30;;
69608;Laerm;57251;52.248;4.812;2024-03-02T00:53:22;52.87;39.22;65.75;;
69608;Laerm;57251;52.248;4.812;2024-03-02T00:53:36;42.07;35.93;55.36;;
69608;Laerm;57251;52.248;4.812;2024-03-02T00:53:55;47.06;35.77;64.50;;
69608;Laerm;57251;52.248;4.812;2024-03-02T00:54:07;37.22;35.10;42.31;;
69608;Laerm;57251;52.248;4.812;2024-03-02T00:54:19;45.52;34.99;59.94;;
69608;Laerm;57251;52.248;4.812;2024-03-02T00:54:29;48.22;35.08;63.28;;
69608;Laerm;57251;52.248;4.812;2024-03-02T00:54:40;49.67;36.66;60.25;;
69608;Laerm;57251;52.248;4.812;2024-03-02T00:54:50;45.24;37.10;60.04;;
69608;Laerm;57251;52.248;4.812;2024-03-02T00:55:01;47.56;36.18;61.42;;
69608;Laerm;57251;52.248;4.812;2024-03-02T00:55:11;44.65;35.94;58.58;;
69608;Laerm;57251;52.248;4.812;2024-03-02T00:55:22;44.06;35.16;57.15;;
69608;Laerm;57251;52.248;4.812;2024-03-02T00:55:35;37.14;34.37;44.60;;
69608;Laerm;57251;52.248;4.812;2024-03-02T00:55:46;37.26;34.58;42.91;;
69608;Laerm;57251;52.248;4.812;2024-03-02T00:55:58;44.60;35.77;58.69;;
69608;Laerm;57251;52.248;4.812;2024-03-02T00:56:10;43.80;37.73;51.96;;
69608;Laerm;57251;52.248;4.812;2024-03-02T00:56:22;42.06;36.87;59.54;;
69608;Laerm;57251;52.248;4.812;2024-03-02T00:56:33;60.37;36.28;75.76;;
69608;Laerm;57251;52.248;4.812;2024-03-02T00:56:44;64.10;36.31;74.69;;
69608;Laerm;57251;52.248;4.812;2024-03-02T00:56:55;52.02;36.26;65.58;;
69608;Laerm;57251;52.248;4.812;2024-03-02T00:57:07;48.80;36.46;58.44;;
69608;Laerm;57251;52.248;4.812;2024-03-02T00:57:19;64.58;37.72;76.97;;
69608;Laerm;57251;52.248;4.812;2024-03-02T00:57:30;54.19;37.82;64.92;;
69608;Laerm;57251;52.248;4.812;2024-03-02T00:57:44;61.92;39.97;74.42;;
69608;Laerm;57251;52.248;4.812;2024-03-02T00:57:55;51.13;37.53;61.08;;
69608;Laerm;57251;52.248;4.812;2024-03-02T00:58:05;61.44;36.88;75.52;;
69608;Laerm;57251;52.248;4.812;2024-03-02T00:58:16;68.28;42.07;80.69;;
69608;Laerm;57251;52.248;4.812;2024-03-02T00:58:26;60.27;38.26;74.19;;
69608;Laerm;57251;52.248;4.812;2024-03-02T00:58:37;42.36;37.09;55.79;;
69608;Laerm;57251;52.248;4.812;2024-03-02T00:58:47;59.84;35.45;73.99;;
69608;Laerm;57251;52.248;4.812;2024-03-02T00:59:00;50.34;34.58;67.67;;
69608;Laerm;57251;52.248;4.812;2024-03-02T00:59:11;42.97;33.76;54.09;;
69608;Laerm;57251;52.248;4.812;2024-03-02T00:59:22;50.52;34.72;68.61;;
69608;Laerm;57251;52.248;4.812;2024-03-02T00:59:32;57.19;34.11;71.68;;
69608;Laerm;57251;52.248;4.812;2024-03-02T00:59:43;45.17;34.28;55.29;;
69608;Laerm;57251;52.248;4.812;2024-03-02T00:59:53;63.28;37.31;75.93;;
69608;Laerm;57251;52.248;4.812;2024-03-02T01:00:03;55.72;37.14;66.90;;
69608;Laerm;57251;52.248;4.812;2024-03-02T01:00:18;56.06;38.53;70.95;;
69608;Laerm;57251;52.248;4.812;2024-03-02T01:00:29;48.82;36.07;60.79;;
69608;Laerm;57251;52.248;4.812;2024-03-02T01:00:39;61.21;36.54;74.00;;
69608;Laerm;57251;52.248;4.812;2024-03-02T01:00:49;56.71;37.76;71.80;;
69608;Laerm;57251;52.248;4.812;2024-03-02T01:01:00;49.41;37.14;66.78;;
69608;Laerm;57251;52.248;4.812;2024-03-02T01:01:10;62.32;39.59;79.07;;
69608;Laerm;57251;52.248;4.812;2024-03-02T01:01:20;59.07;40.51;76.99;;
69608;Laerm;57251;52.248;4.812;2024-03-02T01:01:31;54.98;41.41;67.57;;
69608;Laerm;57251;52.248;4.812;2024-03-02T01:01:42;49.63;37.42;59.05;;
69608;Laerm;57251;52.248;4.812;2024-03-02T01:01:53;59.09;36.84;72.37;;
69608;Laerm;57251;52.248;4.812;2024-03-02T01:02:04;57.29;40.59;72.41;;
69608;Laerm;57251;52.248;4.812;2024-03-02T01:02:14;63.83;38.11;78.90;;
69608;Laerm;57251;52.248;4.812;2024-03-02T01:02:25;68.33;43.02;81.48;;
69608;Laerm;57251;52.248;4.812;2024-03-02T01:02:36;65.63;39.39;77.19;;
69608;Laerm;57251;52.248;4.812;2024-03-02T01:02:47;60.93;37.14;74.27;;
69608;Laerm;57251;52.248;4.812;2024-03-02T01:02:58;53.82;38.98;65.87;;
69608;Laerm;57251;52.248;4.812;2024-03-02T01:03:08;52.93;38.04;67.24;;
69608;Laerm;57251;52.248;4.812;2024-03-02T01:03:20;42.84;38.59;52.34;;
69608;Laerm;57251;52.248;4.812;2024-03-02T01:03:31;48.30;38.27;58.75;;
69608;Laerm;57251;52.248;4.812;2024-03-02T01:03:42;41.38;35.27;52.76;;
69608;Laerm;57251;52.248;4.812;2024-03-02T01:03:52;43.55;34.84;54.40;;
69608;Laerm;57251;52.248;4.812;2024-03-02T01:04:03;39.51;35.12;51.61;;
69608;Laerm;57251;52.248;4.812;2024-03-02T01:04:13;45.79;34.91;57.25;;
69608;Laerm;57251;52.248;4.812;2024-03-02T01:04:24;42.80;35.30;52.99;;
69608;Laerm;57251;52.248;4.812;2024-03-02T01:04:34;45.49;35.78;58.36;;
69608;Laerm;57251;52.248;4.812;2024-03-02T01:04:44;47.44;35.78;60.74;;
69608;Laerm;57251;52.248;4.812;2024-03-02T01:04:55;41.42;34.29;50.91;;
69608;Laerm;57251;52.248;4.812;2024-03-02T01:05:05;41.02;34.97;51.73;;
69608;Laerm;57251;52.248;4.812;2024-03-02T01:05:16;48.66;36.00;62.42;;
69608;Laerm;57251;52.248;4.812;2024-03-02T01:05:26;49.76;35.83;58.82;;
69608;Laerm;57251;52.248;4.812;2024-03-02T01:05:39;54.62;35.18;67.63;;
69608;Laerm;57251;52.248;4.812;2024-03-02T01:05:51;40.64;35.01;60.21;;
69608;Laerm;57251;52.248;4.812;2024-03-02T01:06:01;47.95;37.54;58.43;;
69608;Laerm;57251;52.248;4.812;2024-03-02T01:06:12;61.64;38.97;74.13;;
69608;Laerm;57251;52.248;4.812;2024-03-02T01:06:22;68.67;49.15;78.95;;
69608;Laerm;57251;52.248;4.812;2024-03-02T01:06:33;76.40;53.76;88.68;;
69608;Laerm;57251;52.248;4.812;2024-03-02T01:06:44;66.71;42.28;78.89;;
69608;Laerm;57251;52.248;4.812;2024-03-02T01:06:54;61.32;38.21;76.35;;
69608;Laerm;57251;52.248;4.812;2024-03-02T01:07:04;40.88;37.44;46.14;;
69608;Laerm;57251;52.248;4.812;2024-03-02T01:07:15;55.92;38.58;66.84;;
69608;Laerm;57251;52.248;4.812;2024-03-02T01:07:25;55.40;37.26;72.91;;
69608;Laerm;57251;52.248;4.812;2024-03-02T01:07:37;49.27;36.18;61.40;;
69608;Laerm;57251;52.248;4.812;2024-03-02T01:07:48;52.79;36.16;67.15;;
69608;Laerm;57251;52.248;4.812;2024-03-02T01:08:00;49.00;35.83;62.25;;
69608;Laerm;57251;52.248;4.812;2024-03-02T01:08:11;56.97;35.01;70.84;;
69608;Laerm;57251;52.248;4.812;2024-03-02T01:08:21;39.84;34.65;50.62;;
69608;Laerm;57251;52.248;4.812;2024-03-02T01:08:32;39.35;34.19;55.40;;
69608;Laerm;57251;52.248;4.812;2024-03-02T01:08:43;37.42;34.57;47.47;;
69608;Laerm;57251;52.248;4.812;2024-03-02T01:08:53;42.22;35.57;51.93;;